Condiții Actuale
Senin
În Mare Parte



Presiune
1007,92 (hPa) - 29,76 (inHG)
Vizibilitate

10.0 (km) - 6.2 (mile)
   Temperatura
23  °C
Temperatura
16  °C
Pct. Rouă
65  %
 Umiditate
   Viteza Vântului
12  kts
14  mph
23  km/h
6.3  m/s
   Direcția Vântului
N
45°
E
90°
135°
S
180°
225°
V
270°
315°
 260°

Din Vest
   Date Aeroport
LROP
Aeroportul Internațional Henri Coandă
Metar :LROP 180730Z 26012KT CAVOK 23/16 Q1008 NOSIG
Sâm 18 Septembrie 09:30 am
  Informații despre METAR
METAR este cel mai comun format din lume pentru transmiterea datelor și observațiilor meteo. Este standardizat de Organizația Internațională de Aviație Civilă (ICAO), ceea ce îl face sa fie ușur de înțeles peste tot în lume.
   Informații despre API
Date Furnizate de
https://www.checkwx.com/weather/LROP

Meteorologie de Aviație, furnizor de rapoarte meteo METAR, TAF, AIRMET, SIGMET și OUTLOOK
   © Info
Scripturi SVG/PHP dezvoltate de weather34.com pentru folosire în template-ul weather34 © 2015-2021

Ghid Informativ furnizat de Metar-Wikipedia